ESOK 250150Z AUTO 00000KT 2200 FEW015/// SCT017/// M01/M01 Q1006